Time;durP1;ratioP1;P1;durP2;ratioP2;P2;SDS_P1;SDS_P2;PMS_P1;PMS_P2;Temp;Humidity;BMP_temperature;BMP_pressure;BME280_temperature;BME280_humidity;BME280_pressure;Samples;Min_cycle;Max_cycle;Signal;HPM_P1;HPM_P2
2022/05/02 03:03:05;;;;;;;1.20;1.20;;;12.20;76.40;;;;;;4975033;28;20560;-69
2022/05/02 03:08:23;;;;;;;1.17;1.17;;;12.20;76.80;;;;;;4960921;28;20492;-69
2022/05/02 03:10:50;;;;;;;1.57;1.50;;;12.20;77.00;;;;;;4975492;28;20497;-69
2022/05/02 03:13:16;;;;;;;1.40;1.30;;;12.10;77.10;;;;;;4975571;28;20450;-67
2022/05/02 03:15:43;;;;;;;1.53;1.43;;;12.20;77.00;;;;;;5037945;23;20559;-74
2022/05/02 03:18:11;;;;;;;1.50;1.50;;;12.20;77.00;;;;;;4995132;28;20448;-74
2022/05/02 03:20:37;;;;;;;1.33;1.33;;;12.20;76.90;;;;;;4995139;28;20858;-74
2022/05/02 03:23:04;;;;;;;1.20;1.20;;;12.20;76.80;;;;;;4995192;28;20508;-74
2022/05/02 03:25:31;;;;;;;1.30;1.20;;;12.20;76.80;;;;;;4995172;28;20469;-74
2022/05/02 03:27:58;;;;;;;1.20;1.20;;;12.20;76.80;;;;;;4995071;28;20484;-74
2022/05/02 03:30:24;;;;;;;1.50;1.40;;;12.20;77.10;;;;;;4994921;28;20481;-74
2022/05/02 03:32:51;;;;;;;1.20;1.20;;;12.20;77.20;;;;;;4994615;28;20504;-74
2022/05/02 03:35:19;;;;;;;1.63;1.40;;;12.10;77.20;;;;;;4994844;28;20517;-74
2022/05/02 03:37:46;;;;;;;1.63;1.50;;;12.10;77.40;;;;;;4994561;28;20936;-74
2022/05/02 03:40:12;;;;;;;1.43;1.43;;;12.10;77.40;;;;;;4994802;28;20519;-74
2022/05/02 03:42:39;;;;;;;1.50;1.50;;;12.10;77.40;;;;;;4994741;28;20523;-74
2022/05/02 03:45:07;;;;;;;1.40;1.40;;;12.20;77.40;;;;;;4994659;28;20480;-74
2022/05/02 03:47:34;;;;;;;1.27;1.27;;;12.20;77.50;;;;;;4995480;28;20457;-74
2022/05/02 03:50:01;;;;;;;1.03;1.03;;;12.20;77.60;;;;;;4994276;28;21057;-74
2022/05/02 03:52:29;;;;;;;1.53;1.43;;;12.20;77.40;;;;;;4994613;28;20453;-74
2022/05/02 03:54:55;;;;;;;1.50;1.40;;;12.20;77.30;;;;;;4994510;28;20527;-74
2022/05/02 03:57:22;;;;;;;1.20;1.20;;;12.20;77.50;;;;;;4994521;28;20478;-74
2022/05/02 03:59:49;;;;;;;1.53;1.47;;;12.20;77.60;;;;;;4994460;28;20457;-74
2022/05/02 04:02:16;;;;;;;1.50;1.40;;;12.20;77.60;;;;;;4994427;28;20497;-74
2022/05/02 04:04:42;;;;;;;1.20;1.10;;;12.30;77.60;;;;;;4994319;28;20547;-74
2022/05/02 04:07:09;;;;;;;1.20;1.20;;;12.30;77.70;;;;;;4994068;28;20999;-74
2022/05/02 04:09:37;;;;;;;1.60;1.50;;;12.30;77.60;;;;;;4994249;28;20669;-74
2022/05/02 04:12:04;;;;;;;1.47;1.40;;;12.30;77.40;;;;;;4994014;28;20967;-73
2022/05/02 04:14:31;;;;;;;1.43;1.40;;;12.40;77.30;;;;;;4994636;28;20484;-74
2022/05/02 04:16:58;;;;;;;1.30;1.30;;;12.40;77.40;;;;;;4994283;28;20433;-74
2022/05/02 04:19:24;;;;;;;1.27;1.17;;;12.50;77.50;;;;;;4993860;28;20851;-74
2022/05/02 04:21:51;;;;;;;1.53;1.50;;;12.50;77.50;;;;;;4994173;28;20457;-74
2022/05/02 04:24:18;;;;;;;1.30;1.30;;;12.50;77.40;;;;;;4994076;28;20469;-74
2022/05/02 04:26:46;;;;;;;1.03;1.03;;;12.60;77.30;;;;;;4994088;28;20539;-74
2022/05/02 04:29:13;;;;;;;1.40;1.30;;;12.60;77.30;;;;;;4993165;28;20449;-74
2022/05/02 04:31:39;;;;;;;1.50;1.40;;;12.60;77.40;;;;;;4994066;28;20449;-74
2022/05/02 04:34:06;;;;;;;1.20;1.20;;;12.70;77.50;;;;;;4993957;28;20469;-74
2022/05/02 04:36:32;;;;;;;1.23;1.23;;;12.70;77.30;;;;;;4993970;28;20453;-74
2022/05/02 04:38:59;;;;;;;1.30;1.30;;;12.80;76.90;;;;;;4994157;28;20454;-74
2022/05/02 04:41:26;;;;;;;1.30;1.30;;;12.80;77.00;;;;;;4993991;28;20511;-74
2022/05/02 04:43:55;;;;;;;1.20;1.20;;;12.90;76.90;;;;;;4994099;28;20451;-74
2022/05/02 04:46:22;;;;;;;1.60;1.50;;;13.00;76.70;;;;;;4993857;28;20452;-74
2022/05/02 04:48:49;;;;;;;1.13;1.13;;;13.00;76.30;;;;;;4993782;28;20445;-74
2022/05/02 04:51:16;;;;;;;1.27;1.27;;;13.10;76.50;;;;;;4993804;28;20543;-74
2022/05/02 04:53:43;;;;;;;1.50;1.50;;;13.20;76.40;;;;;;4993514;28;20453;-73
2022/05/02 04:56:09;;;;;;;1.20;1.20;;;13.30;76.20;;;;;;4993885;28;20448;-74
2022/05/02 04:58:36;;;;;;;1.50;1.50;;;13.40;75.90;;;;;;4993809;28;20449;-74
2022/05/02 05:01:07;;;;;;;2.07;1.97;;;13.50;75.40;;;;;;4993750;28;20476;-74
2022/05/02 05:03:34;;;;;;;1.20;1.20;;;13.60;75.10;;;;;;4993802;28;20524;-74
2022/05/02 05:06:00;;;;;;;1.33;1.33;;;13.70;74.70;;;;;;4993619;28;20535;-74
2022/05/02 05:08:27;;;;;;;1.40;1.30;;;13.80;74.40;;;;;;4993649;28;20516;-74
2022/05/02 05:11:04;;;;;;;1.27;1.27;;;13.90;73.80;;;;;;4993842;28;20575;-74
2022/05/02 05:13:41;;;;;;;1.60;1.40;;;14.00;73.80;;;;;;4993740;28;20433;-74
2022/05/02 05:16:43;;;;;;;1.23;1.23;;;14.10;73.40;;;;;;4993425;28;20819;-74
2022/05/02 05:19:31;;;;;;;1.70;1.60;;;14.20;73.90;;;;;;4993628;28;20468;-74
2022/05/02 05:22:09;;;;;;;1.57;1.47;;;14.40;73.70;;;;;;4993660;28;20486;-74
2022/05/02 05:24:55;;;;;;;1.60;1.50;;;14.50;73.40;;;;;;4993565;28;20472;-74
2022/05/02 05:27:43;;;;;;;1.60;1.50;;;14.60;73.30;;;;;;4993611;28;20434;-73
2022/05/02 05:30:11;;;;;;;1.57;1.47;;;14.80;73.30;;;;;;4993487;28;20528;-71
2022/05/02 05:32:45;;;;;;;1.80;1.70;;;14.90;72.60;;;;;;4993523;28;20445;-71
2022/05/02 05:35:14;;;;;;;1.33;1.33;;;15.00;72.40;;;;;;4993411;28;20469;-71
2022/05/02 05:38:00;;;;;;;1.73;1.63;;;14.90;71.50;;;;;;4993538;28;20864;-75
2022/05/02 05:40:31;;;;;;;1.73;1.63;;;14.70;71.90;;;;;;4993781;28;20429;-75
2022/05/02 05:43:27;;;;;;;1.50;1.50;;;14.60;72.90;;;;;;4997247;28;20492;-74
2022/05/02 05:46:15;;;;;;;1.70;1.60;;;14.60;73.10;;;;;;4998013;28;20507;-74
2022/05/02 05:48:57;;;;;;;1.70;1.60;;;14.60;73.00;;;;;;4996939;28;20433;-74
2022/05/02 05:51:32;;;;;;;1.90;1.80;;;14.80;72.90;;;;;;4996478;28;21042;-74
2022/05/02 05:54:16;;;;;;;1.80;1.70;;;14.90;72.80;;;;;;4996462;28;20963;-74
2022/05/02 05:56:54;;;;;;;1.93;1.83;;;15.00;72.50;;;;;;4996765;28;20496;-74
2022/05/02 05:59:28;;;;;;;1.50;1.47;;;15.00;72.30;;;;;;4996682;28;20437;-75
2022/05/02 06:02:04;;;;;;;1.60;1.60;;;14.80;72.30;;;;;;4996422;28;20971;-74
2022/05/02 06:04:34;;;;;;;2.10;2.00;;;14.60;72.30;;;;;;4996564;28;20472;-74
2022/05/02 06:07:01;;;;;;;1.50;1.50;;;14.50;73.60;;;;;;4996473;28;20870;-74
2022/05/02 06:09:32;;;;;;;1.90;1.80;;;14.80;72.90;;;;;;4997296;28;20484;-74
2022/05/02 06:12:00;;;;;;;1.73;1.67;;;14.70;72.60;;;;;;4996335;28;20889;-73
2022/05/02 06:14:31;;;;;;;1.90;1.80;;;14.70;73.50;;;;;;4995794;28;21028;-74
2022/05/02 06:19:48;;;;;;;1.97;1.87;;;14.40;74.40;;;;;;4995028;28;20412;-73
2022/05/02 06:22:18;;;;;;;1.73;1.63;;;14.70;73.70;;;;;;4994966;28;20976;-75
2022/05/02 06:24:47;;;;;;;2.07;1.87;;;14.80;72.70;;;;;;4995132;28;20509;-74
2022/05/02 06:27:14;;;;;;;1.80;1.70;;;15.20;73.10;;;;;;4995242;28;20887;-75
2022/05/02 06:29:42;;;;;;;1.90;1.80;;;15.40;72.00;;;;;;4995137;28;20449;-74
2022/05/02 06:32:11;;;;;;;1.80;1.70;;;15.40;70.80;;;;;;4994956;28;20588;-75
2022/05/02 06:34:40;;;;;;;1.70;1.60;;;15.30;71.00;;;;;;4994973;28;20465;-75
2022/05/02 06:37:37;;;;;;;1.90;1.80;;;15.50;71.60;;;;;;4994976;28;20891;-75
2022/05/02 06:40:07;;;;;;;1.70;1.60;;;15.80;71.40;;;;;;4994852;28;20442;-74
2022/05/02 06:42:38;;;;;;;1.80;1.70;;;16.00;70.90;;;;;;4994509;28;20456;-75
2022/05/02 06:45:20;;;;;;;1.87;1.77;;;16.00;70.40;;;;;;4994752;28;20474;-75
2022/05/02 06:48:06;;;;;;;2.00;1.90;;;15.80;70.20;;;;;;4994934;28;20484;-75
2022/05/02 06:50:35;;;;;;;1.90;1.80;;;16.00;71.20;;;;;;4994783;28;20465;-75
2022/05/02 06:53:18;;;;;;;1.97;1.87;;;16.20;69.60;;;;;;4994046;28;20956;-74
2022/05/02 06:55:51;;;;;;;1.30;1.30;;;16.30;69.50;;;;;;4994619;28;20473;-75
2022/05/02 06:58:26;;;;;;;1.73;1.63;;;16.50;69.10;;;;;;4994658;28;20491;-74
2022/05/02 07:00:58;;;;;;;2.03;1.93;;;16.60;68.80;;;;;;4994599;28;20515;-75
2022/05/02 07:03:53;;;;;;;2.00;1.90;;;17.00;68.60;;;;;;4997691;28;20437;-75
2022/05/02 07:06:34;;;;;;;2.20;2.10;;;17.20;67.00;;;;;;4997933;28;20451;-74
2022/05/02 07:09:04;;;;;;;1.87;1.77;;;17.20;68.50;;;;;;4997062;28;20436;-75
2022/05/02 07:11:43;;;;;;;2.07;1.97;;;17.20;67.40;;;;;;4996647;28;20841;-74
2022/05/02 07:14:17;;;;;;;2.20;2.10;;;17.30;67.10;;;;;;4961710;28;1045085;-74
2022/05/02 07:16:50;;;;;;;1.73;1.70;;;17.30;66.90;;;;;;4998858;28;20425;-75
2022/05/02 07:19:30;;;;;;;2.00;1.90;;;17.30;67.80;;;;;;5000015;28;20460;-75
2022/05/02 07:22:01;;;;;;;1.60;1.60;;;17.20;67.20;;;;;;4995222;28;20512;-75
2022/05/02 07:24:42;;;;;;;1.83;1.73;;;16.70;67.60;;;;;;4995626;28;20469;-74
2022/05/02 07:27:17;;;;;;;2.20;2.10;;;16.50;68.80;;;;;;4995762;28;20788;-74
2022/05/02 07:29:47;;;;;;;2.00;1.90;;;16.60;69.10;;;;;;4995606;28;20483;-74
2022/05/02 07:32:15;;;;;;;1.87;1.77;;;16.80;69.60;;;;;;4995335;28;20476;-74
2022/05/02 07:34:43;;;;;;;1.70;1.60;;;16.80;68.30;;;;;;4995317;28;20822;-74
2022/05/02 07:37:12;;;;;;;1.70;1.60;;;16.70;69.60;;;;;;4995494;28;20449;-75
2022/05/02 07:39:41;;;;;;;1.50;1.50;;;16.70;68.70;;;;;;4995290;28;20581;-75
2022/05/02 07:42:09;;;;;;;1.70;1.70;;;16.60;68.40;;;;;;4995184;28;20452;-74
2022/05/02 07:44:38;;;;;;;1.70;1.60;;;16.60;68.10;;;;;;4995211;28;20880;-76
2022/05/02 07:47:09;;;;;;;1.90;1.80;;;16.40;69.60;;;;;;4995317;28;20456;-75
2022/05/02 07:49:39;;;;;;;1.97;1.87;;;16.60;70.30;;;;;;4994906;28;20498;-75
2022/05/02 07:52:08;;;;;;;1.63;1.53;;;17.00;69.30;;;;;;4994610;28;20520;-75
2022/05/02 07:54:40;;;;;;;1.87;1.77;;;17.40;68.10;;;;;;4994531;28;20469;-75
2022/05/02 07:57:10;;;;;;;1.73;1.63;;;17.70;67.20;;;;;;4994566;28;20921;-76
2022/05/02 07:59:40;;;;;;;1.93;1.83;;;17.70;66.20;;;;;;4994651;28;20440;-75
2022/05/02 08:02:07;;;;;;;1.80;1.70;;;17.30;67.80;;;;;;4994458;28;20442;-75
2022/05/02 08:04:36;;;;;;;1.70;1.60;;;17.20;66.90;;;;;;4993699;28;20469;-75
2022/05/02 08:07:11;;;;;;;1.90;1.80;;;17.70;66.80;;;;;;4994411;28;20549;-75
2022/05/02 08:10:07;;;;;;;1.33;1.33;;;17.70;66.60;;;;;;4994050;28;20460;-75
2022/05/02 08:12:39;;;;;;;1.77;1.67;;;17.80;67.50;;;;;;4994252;28;20527;-75
2022/05/02 08:15:12;;;;;;;1.70;1.70;;;17.70;64.60;;;;;;4994012;28;20476;-75
2022/05/02 08:18:03;;;;;;;1.70;1.60;;;17.50;65.90;;;;;;4994297;28;20437;-75
2022/05/02 08:20:37;;;;;;;1.83;1.73;;;17.50;66.00;;;;;;4992438;28;20467;-76
2022/05/02 08:29:03;;;;;;;1.67;1.60;;;17.90;67.10;;;;;;4993894;28;20982;-75
2022/05/02 08:31:46;;;;;;;1.27;1.27;;;18.40;63.70;;;;;;4993815;28;20903;-75
2022/05/02 08:34:29;;;;;;;1.43;1.33;;;18.00;62.30;;;;;;4994059;28;20473;-75
2022/05/02 08:37:11;;;;;;;1.30;1.30;;;18.00;60.30;;;;;;4994196;28;20437;-75
2022/05/02 08:39:44;;;;;;;1.67;1.57;;;18.00;59.90;;;;;;4994078;28;20488;-76
2022/05/02 08:42:52;;;;;;;1.20;1.20;;;17.80;63.10;;;;;;4993740;28;20913;-76
2022/05/02 08:45:54;;;;;;;1.63;1.60;;;18.10;62.60;;;;;;4994092;28;20469;-75
2022/05/02 08:49:32;;;;;;;1.40;1.40;;;18.30;62.10;;;;;;4994072;28;20433;-75
2022/05/02 08:52:25;;;;;;;1.37;1.27;;;18.70;60.90;;;;;;4993459;28;20492;-75
2022/05/02 08:55:09;;;;;;;2.30;1.60;;;19.30;61.80;;;;;;4993711;28;20468;-74
2022/05/02 08:58:02;;;;;;;1.60;1.50;;;19.30;60.50;;;;;;4993469;28;20983;-75
2022/05/02 09:00:42;;;;;;;1.70;1.60;;;19.30;60.10;;;;;;4993685;28;20450;-75
2022/05/02 09:03:35;;;;;;;1.20;1.10;;;18.90;59.40;;;;;;4994044;28;20488;-75
2022/05/02 09:06:38;;;;;;;1.20;1.20;;;18.70;59.70;;;;;;4993758;28;20465;-75
2022/05/02 09:09:37;;;;;;;1.20;1.20;;;18.90;59.30;;;;;;4993771;28;20524;-76
2022/05/02 09:12:42;;;;;;;1.13;1.13;;;18.90;59.70;;;;;;4993645;28;20471;-76
2022/05/02 09:15:21;;;;;;;1.23;1.23;;;18.90;59.30;;;;;;5088338;23;20500;-69
2022/05/02 09:18:12;;;;;;;1.20;1.20;;;19.30;60.30;;;;;;4997473;28;20429;-69
2022/05/02 09:20:56;;;;;;;1.27;1.23;;;19.60;59.60;;;;;;4997413;28;20488;-70
2022/05/02 09:24:04;;;;;;;1.20;1.20;;;19.80;57.50;;;;;;4996660;28;20527;-70
2022/05/02 09:27:12;;;;;;;1.20;1.20;;;19.70;56.80;;;;;;4997341;28;20530;-70
2022/05/02 09:30:18;;;;;;;1.07;1.07;;;19.40;60.30;;;;;;4997282;28;20437;-70
2022/05/02 09:32:58;;;;;;;1.20;1.20;;;19.80;58.50;;;;;;4997173;28;20472;-69
2022/05/02 09:35:33;;;;;;;1.13;1.13;;;19.90;57.40;;;;;;4996985;28;21010;-69
2022/05/02 09:38:00;;;;;;;1.10;1.10;;;19.70;55.80;;;;;;4997101;28;20511;-69
2022/05/02 09:40:37;;;;;;;1.20;1.00;;;19.40;56.00;;;;;;4996805;28;20453;-69
2022/05/02 09:49:33;;;;;;;1.10;1.10;;;19.10;56.70;;;;;;4996977;28;20448;-70
2022/05/02 09:49:37;;;;;;;1.10;1.10;;;19.00;56.20;;;;;;4996552;28;20451;-70
2022/05/02 09:52:28;;;;;;;1.10;1.10;;;19.00;57.10;;;;;;4996962;28;20473;-69
2022/05/02 09:58:32;;;;;;;1.00;1.00;;;18.70;58.90;;;;;;4996768;28;20440;-69
2022/05/02 10:01:09;;;;;;;1.20;1.00;;;18.40;56.80;;;;;;4997239;28;20856;-71
2022/05/02 10:03:38;;;;;;;0.90;0.90;;;18.50;58.70;;;;;;4997905;28;20495;-70
2022/05/02 10:06:08;;;;;;;0.90;0.90;;;18.60;57.30;;;;;;4997498;28;20992;-69
2022/05/02 10:08:50;;;;;;;1.10;1.10;;;18.90;56.50;;;;;;4997218;28;21015;-70
2022/05/02 10:11:46;;;;;;;0.90;0.90;;;19.30;55.90;;;;;;4997281;28;20835;-70
2022/05/02 10:14:32;;;;;;;0.80;0.80;;;19.30;54.50;;;;;;4998111;28;20956;-70
2022/05/02 10:17:06;;;;;;;1.57;1.00;;;19.20;55.10;;;;;;4997947;28;20492;-70
2022/05/02 10:19:57;;;;;;;1.00;1.00;;;19.30;55.00;;;;;;4997523;28;20453;-70
2022/05/02 10:22:30;;;;;;;1.57;1.00;;;19.40;54.40;;;;;;4997994;28;20426;-69
2022/05/02 10:25:12;;;;;;;1.00;1.00;;;19.50;55.00;;;;;;4998447;28;20483;-70
2022/05/02 10:28:09;;;;;;;0.90;0.90;;;19.40;54.50;;;;;;4996816;28;20430;-71
2022/05/02 10:30:47;;;;;;;1.00;1.00;;;19.50;55.20;;;;;;4997650;28;20444;-70
2022/05/02 10:33:16;;;;;;;0.90;0.90;;;19.80;54.00;;;;;;4997305;28;20473;-70
2022/05/02 10:35:47;;;;;;;0.90;0.90;;;20.20;53.40;;;;;;4997588;28;20533;-72
2022/05/02 10:38:20;;;;;;;0.93;0.93;;;20.20;52.70;;;;;;4997685;28;20560;-70
2022/05/02 10:40:51;;;;;;;0.97;0.97;;;20.20;53.30;;;;;;4997477;28;20520;-70
2022/05/02 10:43:24;;;;;;;0.90;0.90;;;20.10;54.40;;;;;;4997255;28;20480;-70
2022/05/02 10:45:51;;;;;;;1.10;1.10;;;20.00;53.40;;;;;;4998014;28;20501;-70
2022/05/02 10:48:30;;;;;;;1.10;1.10;;;19.70;53.30;;;;;;4997565;28;20881;-70
2022/05/02 10:51:06;;;;;;;1.00;1.00;;;19.30;55.20;;;;;;4996978;28;20445;-69
2022/05/02 10:53:56;;;;;;;0.93;0.93;;;18.80;56.50;;;;;;4996584;28;20465;-70
2022/05/02 10:56:33;;;;;;;0.90;0.90;;;19.00;54.90;;;;;;4995620;28;20524;-70
2022/05/02 10:59:03;;;;;;;1.00;0.90;;;19.50;56.60;;;;;;4995759;28;20515;-69
2022/05/02 11:01:58;;;;;;;1.50;1.40;;;19.70;53.60;;;;;;4996813;28;20452;-70
2022/05/02 11:04:32;;;;;;;0.80;0.80;;;19.70;52.50;;;;;;4997341;28;20798;-71
2022/05/02 11:07:07;;;;;;;0.90;0.90;;;19.70;52.90;;;;;;4997408;28;20500;-71
2022/05/02 11:09:44;;;;;;;0.90;0.90;;;19.90;54.20;;;;;;4997365;28;20511;-70
2022/05/02 11:12:19;;;;;;;0.90;0.90;;;20.10;53.20;;;;;;4997790;28;20956;-70
2022/05/02 11:14:56;;;;;;;0.90;0.90;;;20.30;54.60;;;;;;4997134;28;20487;-70
2022/05/02 11:17:33;;;;;;;0.80;0.80;;;20.50;52.30;;;;;;4997238;28;20854;-71
2022/05/02 11:23:05;;;;;;;0.80;0.80;;;20.60;52.80;;;;;;4997344;28;20460;-70
2022/05/02 11:25:38;;;;;;;0.90;0.90;;;20.30;52.30;;;;;;4996789;28;20479;-71
2022/05/02 11:28:19;;;;;;;0.80;0.80;;;20.40;53.30;;;;;;4997046;28;20430;-70
2022/05/02 11:30:50;;;;;;;0.80;0.80;;;20.30;51.40;;;;;;4997264;28;20476;-72
2022/05/02 11:33:23;;;;;;;0.80;0.80;;;20.20;50.50;;;;;;4997054;28;20465;-70
2022/05/02 11:35:55;;;;;;;0.70;0.70;;;20.00;52.90;;;;;;4997022;28;21046;-73
2022/05/02 11:38:32;;;;;;;1.10;1.00;;;20.10;52.80;;;;;;4996515;28;20445;-69
2022/05/02 11:41:00;;;;;;;0.80;0.80;;;20.30;50.80;;;;;;4996918;28;20445;-70
2022/05/02 11:43:31;;;;;;;0.80;0.80;;;20.70;51.40;;;;;;4997175;28;20956;-70
2022/05/02 11:46:14;;;;;;;0.80;0.80;;;20.50;48.80;;;;;;4998228;28;20535;-70
2022/05/02 11:49:20;;;;;;;0.80;0.80;;;20.20;50.30;;;;;;4997750;28;20437;-70
2022/05/02 11:51:48;;;;;;;0.70;0.70;;;20.40;50.00;;;;;;4980495;28;20535;-70
2022/05/02 11:54:34;;;;;;;0.80;0.80;;;20.60;50.10;;;;;;4996547;28;20500;-69
2022/05/02 11:57:13;;;;;;;0.80;0.80;;;20.90;49.30;;;;;;4996713;28;20465;-71
2022/05/02 11:59:50;;;;;;;0.80;0.80;;;20.90;50.00;;;;;;4996479;28;20445;-71
2022/05/02 12:02:28;;;;;;;0.63;0.63;;;20.90;49.40;;;;;;4996403;28;20432;-70
2022/05/02 12:04:58;;;;;;;0.70;0.70;;;20.70;48.60;;;;;;4996557;28;20481;-70
2022/05/02 12:07:32;;;;;;;0.70;0.70;;;21.10;49.50;;;;;;4996571;28;20438;-71
2022/05/02 12:10:03;;;;;;;0.80;0.80;;;20.90;48.30;;;;;;4996227;28;20429;-70
2022/05/02 12:12:32;;;;;;;0.60;0.60;;;20.90;50.20;;;;;;4996037;28;20985;-70
2022/05/02 12:15:08;;;;;;;0.83;0.83;;;21.10;50.90;;;;;;4996201;28;20527;-70
2022/05/02 12:17:52;;;;;;;0.80;0.80;;;21.70;51.60;;;;;;4996463;28;20430;-70
2022/05/02 12:20:27;;;;;;;0.90;0.90;;;21.90;50.60;;;;;;4996360;28;20565;-70
2022/05/02 12:22:56;;;;;;;0.80;0.80;;;22.00;49.90;;;;;;4996206;28;20540;-70
2022/05/02 12:25:27;;;;;;;0.70;0.70;;;21.90;49.40;;;;;;4995549;28;20901;-69
2022/05/02 12:27:53;;;;;;;0.70;0.70;;;21.70;50.40;;;;;;4996639;28;20444;-70
2022/05/02 12:30:22;;;;;;;0.77;0.77;;;21.50;50.40;;;;;;4996108;28;20460;-70
2022/05/02 12:32:51;;;;;;;0.70;0.70;;;21.30;50.80;;;;;;4995841;28;20488;-70
2022/05/02 12:35:21;;;;;;;0.70;0.70;;;21.10;49.80;;;;;;4995745;28;20473;-71
2022/05/02 12:37:51;;;;;;;0.80;0.80;;;20.60;49.50;;;;;;4995566;28;20449;-70
2022/05/02 12:40:19;;;;;;;0.80;0.70;;;20.40;50.10;;;;;;4996379;28;20444;-70
2022/05/02 12:42:49;;;;;;;1.07;0.80;;;20.50;51.10;;;;;;4996201;28;20441;-70
2022/05/02 12:45:18;;;;;;;0.80;0.80;;;20.60;51.10;;;;;;5002779;28;20469;-70
2022/05/02 12:47:52;;;;;;;0.80;0.80;;;20.60;50.10;;;;;;5005964;28;20440;-70
2022/05/02 12:50:21;;;;;;;0.80;0.77;;;20.70;50.10;;;;;;5001611;28;20452;-70
2022/05/02 12:52:49;;;;;;;0.70;0.70;;;21.20;50.90;;;;;;5001566;28;20821;-70
2022/05/02 12:55:18;;;;;;;0.80;0.80;;;21.60;50.20;;;;;;5001585;28;20473;-70
2022/05/02 13:00:39;;;;;;;1.20;0.80;;;22.50;48.70;;;;;;5000806;28;20903;-71
2022/05/02 13:03:19;;;;;;;0.70;0.70;;;22.20;48.30;;;;;;5000190;28;20936;-70
2022/05/02 13:05:57;;;;;;;0.80;0.80;;;21.70;46.20;;;;;;4999930;28;20488;-70
2022/05/02 13:08:33;;;;;;;0.70;0.70;;;20.90;48.00;;;;;;4999511;28;20460;-70
2022/05/02 13:11:06;;;;;;;0.77;0.77;;;21.00;49.20;;;;;;4999462;28;20437;-70
2022/05/02 13:13:41;;;;;;;0.70;0.70;;;20.70;49.60;;;;;;4999411;28;20484;-70
2022/05/02 13:16:17;;;;;;;0.80;0.80;;;20.60;50.20;;;;;;4998835;28;20508;-70
2022/05/02 13:18:49;;;;;;;0.80;0.80;;;20.90;51.60;;;;;;4999005;28;20986;-72
2022/05/02 13:21:18;;;;;;;0.70;0.70;;;20.90;51.80;;;;;;4998843;28;20941;-69
2022/05/02 13:23:47;;;;;;;0.80;0.80;;;21.00;52.10;;;;;;4998872;28;20449;-70
2022/05/02 13:26:38;;;;;;;0.70;0.70;;;21.00;51.60;;;;;;4999039;28;20476;-70
2022/05/02 13:29:10;;;;;;;0.70;0.70;;;21.40;51.00;;;;;;4999110;28;20440;-71
2022/05/02 13:31:48;;;;;;;0.70;0.67;;;21.70;51.70;;;;;;4999462;28;20476;-70
2022/05/02 13:34:24;;;;;;;0.90;0.80;;;22.00;50.20;;;;;;4998436;28;20960;-70
2022/05/02 13:36:58;;;;;;;0.63;0.60;;;22.00;49.10;;;;;;4998853;28;20429;-70
2022/05/02 13:39:33;;;;;;;0.67;0.63;;;22.10;49.10;;;;;;4999036;28;20433;-70
2022/05/02 13:42:06;;;;;;;0.70;0.70;;;21.90;50.40;;;;;;4998442;28;20429;-71
2022/05/02 13:44:43;;;;;;;0.63;0.60;;;22.20;50.00;;;;;;4998987;28;20870;-71
2022/05/02 13:47:11;;;;;;;0.60;0.60;;;22.30;49.40;;;;;;4998160;28;20951;-70
2022/05/02 13:49:59;;;;;;;0.60;0.60;;;22.70;49.00;;;;;;4998712;28;20449;-71
2022/05/02 13:52:35;;;;;;;0.70;0.70;;;22.90;48.40;;;;;;4998449;28;20480;-70
2022/05/02 13:55:07;;;;;;;0.73;0.73;;;22.60;49.00;;;;;;4998487;28;20829;-71
2022/05/02 13:57:44;;;;;;;0.60;0.60;;;22.20;48.30;;;;;;4998441;28;20438;-71
2022/05/02 14:03:25;;;;;;;0.63;0.63;;;21.60;50.30;;;;;;4997330;28;20476;-70
2022/05/02 14:06:00;;;;;;;0.70;0.70;;;21.30;51.30;;;;;;4998007;28;20823;-70
2022/05/02 14:08:30;;;;;;;0.70;0.60;;;21.50;50.50;;;;;;4998396;28;20456;-71
2022/05/02 14:10:58;;;;;;;0.70;0.70;;;21.90;49.90;;;;;;4998973;28;20472;-71
2022/05/02 14:13:27;;;;;;;0.70;0.70;;;22.30;48.90;;;;;;4997392;28;21015;-71
2022/05/02 14:15:54;;;;;;;0.70;0.70;;;22.20;50.20;;;;;;4997224;28;20509;-71
2022/05/02 14:18:22;;;;;;;0.70;0.70;;;22.40;50.70;;;;;;4998337;28;20823;-70
2022/05/02 14:21:01;;;;;;;1.30;0.60;;;22.50;49.00;;;;;;4998345;28;20547;-71
2022/05/02 14:23:28;;;;;;;0.60;0.60;;;22.60;49.20;;;;;;4997659;28;20464;-70
2022/05/02 14:25:54;;;;;;;0.60;0.60;;;22.90;49.00;;;;;;4997604;28;20472;-69
2022/05/02 14:28:22;;;;;;;0.70;0.70;;;23.00;49.20;;;;;;4997573;28;20453;-70
2022/05/02 14:30:59;;;;;;;0.60;0.60;;;23.20;48.20;;;;;;4998032;28;20460;-70
2022/05/02 14:33:30;;;;;;;0.80;0.80;;;23.40;47.40;;;;;;4996598;28;20909;-70
2022/05/02 14:35:58;;;;;;;0.70;0.70;;;23.20;45.30;;;;;;4997208;28;20984;-69
2022/05/02 14:38:28;;;;;;;0.70;0.70;;;23.00;45.80;;;;;;4997565;28;20449;-69
2022/05/02 14:40:56;;;;;;;0.70;0.60;;;22.30;46.70;;;;;;4998110;28;20831;-72
2022/05/02 14:43:23;;;;;;;0.60;0.60;;;22.20;48.20;;;;;;4997012;28;20944;-70
2022/05/02 14:45:50;;;;;;;0.80;0.60;;;22.50;47.40;;;;;;4998299;28;20489;-71
2022/05/02 14:48:18;;;;;;;0.70;0.60;;;22.80;48.70;;;;;;4998888;28;20453;-71
2022/05/02 14:50:46;;;;;;;0.60;0.53;;;22.80;48.10;;;;;;4998499;28;20941;-70
2022/05/02 14:53:14;;;;;;;0.60;0.60;;;22.50;47.70;;;;;;4998833;28;20485;-70
2022/05/02 14:55:44;;;;;;;0.60;0.60;;;22.20;48.20;;;;;;4996925;28;21007;-69
2022/05/02 14:58:13;;;;;;;0.70;0.63;;;21.90;49.00;;;;;;4995835;28;20429;-69
2022/05/02 15:00:42;;;;;;;0.60;0.60;;;22.00;49.10;;;;;;4995719;28;20445;-69
2022/05/02 15:03:12;;;;;;;0.60;0.60;;;22.20;49.60;;;;;;4995583;28;20598;-69
2022/05/02 15:05:40;;;;;;;0.70;0.67;;;22.20;48.10;;;;;;4995721;28;20484;-69
2022/05/02 15:08:20;;;;;;;0.80;0.67;;;22.00;48.60;;;;;;4995587;28;20500;-69
2022/05/02 15:10:56;;;;;;;0.90;0.90;;;21.80;48.50;;;;;;4995631;28;20442;-69
2022/05/02 15:13:56;;;;;;;0.70;0.60;;;21.70;48.80;;;;;;4994967;28;20896;-69
2022/05/02 15:16:32;;;;;;;0.63;0.60;;;21.90;50.30;;;;;;5113330;23;20867;-75
2022/05/02 15:22:16;;;;;;;0.70;0.70;;;21.90;49.40;;;;;;4995329;28;20528;-74
2022/05/02 15:24:48;;;;;;;0.67;0.67;;;22.00;49.70;;;;;;4995105;28;20434;-74
2022/05/02 15:38:57;;;;;;;0.70;0.63;;;23.00;48.20;;;;;;4994977;28;20433;-75
2022/05/02 15:42:02;;;;;;;0.70;0.70;;;23.20;48.80;;;;;;4994891;28;20437;-76
2022/05/02 15:44:36;;;;;;;0.70;0.70;;;23.20;48.80;;;;;;4994857;28;20434;-76
2022/05/02 15:47:06;;;;;;;0.67;0.60;;;23.20;48.30;;;;;;4994421;28;20984;-75
2022/05/02 15:49:34;;;;;;;0.80;0.80;;;22.90;47.70;;;;;;4994696;28;20477;-74
2022/05/02 15:52:04;;;;;;;0.70;0.70;;;22.60;47.80;;;;;;4994664;28;20508;-74
2022/05/02 15:54:42;;;;;;;0.70;0.70;;;22.10;48.30;;;;;;4994541;28;20465;-74
2022/05/02 15:57:34;;;;;;;0.63;0.63;;;21.90;49.50;;;;;;4994196;28;20515;-73
2022/05/02 16:00:21;;;;;;;0.70;0.70;;;22.10;49.00;;;;;;4988936;28;20457;-73
2022/05/02 16:03:10;;;;;;;0.63;0.60;;;22.00;49.10;;;;;;4994497;28;20437;-74
2022/05/02 16:05:41;;;;;;;0.70;0.70;;;21.90;48.70;;;;;;4994462;28;20531;-74
2022/05/02 16:10:58;;;;;;;0.80;0.80;;;21.70;48.00;;;;;;4994531;28;20413;-73
2022/05/02 16:13:34;;;;;;;0.60;0.60;;;22.00;48.70;;;;;;4994054;28;20507;-74
2022/05/02 16:16:10;;;;;;;0.70;0.70;;;22.10;48.10;;;;;;4993750;28;21058;-74
2022/05/02 16:18:38;;;;;;;0.80;0.80;;;22.10;48.60;;;;;;4993910;28;20777;-73
2022/05/02 16:21:05;;;;;;;0.70;0.63;;;22.10;48.70;;;;;;4993923;28;20937;-74
2022/05/02 16:23:33;;;;;;;0.70;0.60;;;22.10;49.00;;;;;;4994255;28;20492;-74
2022/05/02 16:26:00;;;;;;;0.70;0.70;;;22.10;48.80;;;;;;4993553;28;20472;-74
2022/05/02 16:28:28;;;;;;;0.60;0.60;;;22.20;48.10;;;;;;4993901;28;20857;-73
2022/05/02 16:31:02;;;;;;;0.70;0.60;;;22.20;48.40;;;;;;4994082;28;20487;-73
2022/05/02 16:33:30;;;;;;;0.70;0.70;;;22.30;49.40;;;;;;4994114;28;20465;-74
2022/05/02 16:35:58;;;;;;;0.60;0.60;;;22.20;49.90;;;;;;4993693;28;20976;-73
2022/05/02 16:38:29;;;;;;;0.80;0.63;;;22.00;49.80;;;;;;4993931;28;20484;-74
2022/05/02 16:40:56;;;;;;;1.43;0.60;;;22.20;50.30;;;;;;4993870;28;20449;-75
2022/05/02 16:43:25;;;;;;;0.60;0.60;;;22.20;49.80;;;;;;4993603;28;20929;-74
2022/05/02 16:45:53;;;;;;;0.70;0.70;;;22.10;50.10;;;;;;4993890;28;20484;-74
2022/05/02 16:48:21;;;;;;;0.70;0.70;;;21.80;50.70;;;;;;4993870;28;20928;-73
2022/05/02 16:50:49;;;;;;;0.80;0.80;;;21.70;50.70;;;;;;4993923;28;20445;-74
2022/05/02 16:53:16;;;;;;;0.70;0.70;;;21.60;50.40;;;;;;4993908;28;20481;-74
2022/05/02 16:55:43;;;;;;;0.60;0.60;;;21.50;51.00;;;;;;4993850;28;20489;-74
2022/05/02 16:58:12;;;;;;;0.80;0.80;;;21.50;51.30;;;;;;4994058;28;20449;-74
2022/05/02 17:00:46;;;;;;;0.70;0.70;;;21.40;52.70;;;;;;4993810;28;20444;-74
2022/05/02 17:03:14;;;;;;;0.73;0.70;;;21.50;51.70;;;;;;4994758;28;20436;-74
2022/05/02 17:05:44;;;;;;;0.63;0.60;;;21.30;52.00;;;;;;4997544;28;20480;-73
2022/05/02 17:08:17;;;;;;;0.60;0.60;;;21.30;52.30;;;;;;4996917;28;20480;-73
2022/05/02 17:10:46;;;;;;;0.70;0.70;;;21.40;52.10;;;;;;4996749;28;20449;-72
2022/05/02 17:13:16;;;;;;;0.70;0.70;;;21.40;52.20;;;;;;4995838;28;20952;-73